sensor_id;sensor_type;location;lat;lon;timestamp;P1;durP1;ratioP1;P2;durP2;ratioP2
14975;SDS011;7584;60.468;25.126;2023-11-19T00:01:45;12.30;;;7.23;;
14975;SDS011;7584;60.468;25.126;2023-11-19T00:04:12;12.77;;;8.07;;
14975;SDS011;7584;60.468;25.126;2023-11-19T00:06:37;10.30;;;6.83;;
14975;SDS011;7584;60.468;25.126;2023-11-19T00:09:02;11.70;;;7.43;;
14975;SDS011;7584;60.468;25.126;2023-11-19T00:11:29;13.93;;;7.50;;
14975;SDS011;7584;60.468;25.126;2023-11-19T00:13:54;13.77;;;7.03;;
14975;SDS011;7584;60.468;25.126;2023-11-19T00:16:19;11.23;;;7.77;;
14975;SDS011;7584;60.468;25.126;2023-11-19T00:18:45;9.00;;;7.07;;
14975;SDS011;7584;60.468;25.126;2023-11-19T00:21:10;10.43;;;7.20;;
14975;SDS011;7584;60.468;25.126;2023-11-19T00:23:35;11.70;;;7.37;;
14975;SDS011;7584;60.468;25.126;2023-11-19T00:26:01;11.93;;;7.63;;
14975;SDS011;7584;60.468;25.126;2023-11-19T00:28:26;11.20;;;6.93;;
14975;SDS011;7584;60.468;25.126;2023-11-19T00:30:51;13.00;;;7.67;;
14975;SDS011;7584;60.468;25.126;2023-11-19T00:33:17;10.47;;;7.30;;
14975;SDS011;7584;60.468;25.126;2023-11-19T00:35:42;13.60;;;7.60;;
14975;SDS011;7584;60.468;25.126;2023-11-19T00:38:07;13.43;;;7.77;;
14975;SDS011;7584;60.468;25.126;2023-11-19T00:40:32;11.27;;;6.47;;
14975;SDS011;7584;60.468;25.126;2023-11-19T00:42:58;10.63;;;6.77;;
14975;SDS011;7584;60.468;25.126;2023-11-19T00:45:23;9.97;;;6.60;;
14975;SDS011;7584;60.468;25.126;2023-11-19T00:47:48;12.93;;;7.77;;
14975;SDS011;7584;60.468;25.126;2023-11-19T00:50:14;12.73;;;7.20;;
14975;SDS011;7584;60.468;25.126;2023-11-19T00:52:39;10.33;;;6.63;;
14975;SDS011;7584;60.468;25.126;2023-11-19T00:55:05;10.30;;;6.80;;
14975;SDS011;7584;60.468;25.126;2023-11-19T00:57:31;10.27;;;6.50;;
14975;SDS011;7584;60.468;25.126;2023-11-19T00:59:58;10.30;;;7.10;;
14975;SDS011;7584;60.468;25.126;2023-11-19T01:02:24;8.90;;;6.10;;
14975;SDS011;7584;60.468;25.126;2023-11-19T01:04:49;9.30;;;6.87;;
14975;SDS011;7584;60.468;25.126;2023-11-19T01:07:15;10.70;;;6.80;;
14975;SDS011;7584;60.468;25.126;2023-11-19T01:09:43;9.57;;;6.87;;
14975;SDS011;7584;60.468;25.126;2023-11-19T01:12:08;13.07;;;7.50;;
14975;SDS011;7584;60.468;25.126;2023-11-19T01:14:35;12.83;;;7.17;;
14975;SDS011;7584;60.468;25.126;2023-11-19T01:17:00;12.03;;;6.77;;
14975;SDS011;7584;60.468;25.126;2023-11-19T01:19:26;12.40;;;7.17;;
14975;SDS011;7584;60.468;25.126;2023-11-19T01:21:53;11.53;;;6.27;;
14975;SDS011;7584;60.468;25.126;2023-11-19T01:24:18;9.73;;;6.07;;
14975;SDS011;7584;60.468;25.126;2023-11-19T01:26:44;9.60;;;6.30;;
14975;SDS011;7584;60.468;25.126;2023-11-19T01:29:15;10.43;;;6.30;;
14975;SDS011;7584;60.468;25.126;2023-11-19T01:31:45;10.03;;;6.17;;
14975;SDS011;7584;60.468;25.126;2023-11-19T01:34:10;9.03;;;5.60;;
14975;SDS011;7584;60.468;25.126;2023-11-19T01:36:36;10.10;;;6.63;;
14975;SDS011;7584;60.468;25.126;2023-11-19T01:39:02;12.00;;;6.57;;
14975;SDS011;7584;60.468;25.126;2023-11-19T01:41:29;9.63;;;6.53;;
14975;SDS011;7584;60.468;25.126;2023-11-19T01:43:54;10.23;;;6.50;;
14975;SDS011;7584;60.468;25.126;2023-11-19T01:46:19;13.10;;;6.67;;
14975;SDS011;7584;60.468;25.126;2023-11-19T01:48:45;10.90;;;6.37;;
14975;SDS011;7584;60.468;25.126;2023-11-19T01:51:12;10.10;;;6.10;;
14975;SDS011;7584;60.468;25.126;2023-11-19T01:53:37;9.20;;;6.47;;
14975;SDS011;7584;60.468;25.126;2023-11-19T01:56:04;10.83;;;5.73;;
14975;SDS011;7584;60.468;25.126;2023-11-19T01:58:30;13.07;;;6.00;;
14975;SDS011;7584;60.468;25.126;2023-11-19T02:00:56;9.70;;;6.13;;
14975;SDS011;7584;60.468;25.126;2023-11-19T02:03:21;10.37;;;5.63;;
14975;SDS011;7584;60.468;25.126;2023-11-19T02:05:47;8.60;;;5.73;;
14975;SDS011;7584;60.468;25.126;2023-11-19T02:08:14;8.60;;;5.50;;
14975;SDS011;7584;60.468;25.126;2023-11-19T02:10:39;11.90;;;6.83;;
14975;SDS011;7584;60.468;25.126;2023-11-19T02:13:04;11.07;;;6.20;;
14975;SDS011;7584;60.468;25.126;2023-11-19T02:15:31;11.27;;;6.67;;
14975;SDS011;7584;60.468;25.126;2023-11-19T02:17:56;12.27;;;7.20;;
14975;SDS011;7584;60.468;25.126;2023-11-19T02:20:21;9.17;;;6.30;;
14975;SDS011;7584;60.468;25.126;2023-11-19T02:22:47;10.33;;;6.63;;
14975;SDS011;7584;60.468;25.126;2023-11-19T02:25:25;10.67;;;7.00;;
14975;SDS011;7584;60.468;25.126;2023-11-19T02:27:57;10.13;;;6.90;;
14975;SDS011;7584;60.468;25.126;2023-11-19T02:30:23;12.43;;;7.27;;
14975;SDS011;7584;60.468;25.126;2023-11-19T02:32:52;9.10;;;6.50;;
14975;SDS011;7584;60.468;25.126;2023-11-19T02:35:18;10.20;;;6.43;;
14975;SDS011;7584;60.468;25.126;2023-11-19T02:37:43;11.43;;;6.90;;
14975;SDS011;7584;60.468;25.126;2023-11-19T02:40:10;11.07;;;6.50;;
14975;SDS011;7584;60.468;25.126;2023-11-19T02:42:35;11.57;;;5.83;;
14975;SDS011;7584;60.468;25.126;2023-11-19T02:45:00;10.47;;;5.73;;
14975;SDS011;7584;60.468;25.126;2023-11-19T02:47:26;9.70;;;5.97;;
14975;SDS011;7584;60.468;25.126;2023-11-19T02:49:52;9.87;;;6.27;;
14975;SDS011;7584;60.468;25.126;2023-11-19T02:52:18;8.10;;;6.13;;
14975;SDS011;7584;60.468;25.126;2023-11-19T02:54:43;8.60;;;5.53;;
14975;SDS011;7584;60.468;25.126;2023-11-19T02:57:10;9.33;;;5.80;;
14975;SDS011;7584;60.468;25.126;2023-11-19T02:59:38;8.77;;;5.67;;
14975;SDS011;7584;60.468;25.126;2023-11-19T03:02:07;9.57;;;5.90;;
14975;SDS011;7584;60.468;25.126;2023-11-19T03:04:36;8.00;;;5.80;;
14975;SDS011;7584;60.468;25.126;2023-11-19T03:07:04;9.17;;;5.70;;
14975;SDS011;7584;60.468;25.126;2023-11-19T03:09:30;10.17;;;6.27;;
14975;SDS011;7584;60.468;25.126;2023-11-19T03:11:55;8.53;;;5.70;;
14975;SDS011;7584;60.468;25.126;2023-11-19T03:14:20;8.40;;;5.23;;
14975;SDS011;7584;60.468;25.126;2023-11-19T03:16:47;8.97;;;5.43;;
14975;SDS011;7584;60.468;25.126;2023-11-19T03:19:13;11.13;;;5.90;;
14975;SDS011;7584;60.468;25.126;2023-11-19T03:21:38;8.33;;;5.93;;
14975;SDS011;7584;60.468;25.126;2023-11-19T03:24:03;10.40;;;6.23;;
14975;SDS011;7584;60.468;25.126;2023-11-19T03:26:29;9.23;;;5.80;;
14975;SDS011;7584;60.468;25.126;2023-11-19T03:28:54;9.20;;;5.50;;
14975;SDS011;7584;60.468;25.126;2023-11-19T03:31:21;9.83;;;5.67;;
14975;SDS011;7584;60.468;25.126;2023-11-19T03:33:47;9.13;;;6.23;;
14975;SDS011;7584;60.468;25.126;2023-11-19T03:36:12;8.50;;;5.80;;
14975;SDS011;7584;60.468;25.126;2023-11-19T03:38:38;11.67;;;6.93;;
14975;SDS011;7584;60.468;25.126;2023-11-19T03:41:12;7.40;;;5.03;;
14975;SDS011;7584;60.468;25.126;2023-11-19T03:43:38;8.60;;;5.33;;
14975;SDS011;7584;60.468;25.126;2023-11-19T03:46:03;8.83;;;5.50;;
14975;SDS011;7584;60.468;25.126;2023-11-19T03:48:30;8.57;;;5.57;;
14975;SDS011;7584;60.468;25.126;2023-11-19T03:50:55;8.80;;;5.50;;
14975;SDS011;7584;60.468;25.126;2023-11-19T03:53:21;11.57;;;6.80;;
14975;SDS011;7584;60.468;25.126;2023-11-19T03:55:46;9.23;;;5.67;;
14975;SDS011;7584;60.468;25.126;2023-11-19T03:58:11;10.80;;;5.70;;
14975;SDS011;7584;60.468;25.126;2023-11-19T04:00:37;9.20;;;5.10;;
14975;SDS011;7584;60.468;25.126;2023-11-19T04:03:02;8.70;;;4.77;;
14975;SDS011;7584;60.468;25.126;2023-11-19T04:05:28;8.47;;;5.10;;
14975;SDS011;7584;60.468;25.126;2023-11-19T04:07:53;10.50;;;5.77;;
14975;SDS011;7584;60.468;25.126;2023-11-19T04:10:19;11.30;;;6.33;;
14975;SDS011;7584;60.468;25.126;2023-11-19T04:12:45;10.53;;;5.90;;
14975;SDS011;7584;60.468;25.126;2023-11-19T04:15:11;11.53;;;6.47;;
14975;SDS011;7584;60.468;25.126;2023-11-19T04:17:36;10.70;;;6.27;;
14975;SDS011;7584;60.468;25.126;2023-11-19T04:20:01;8.63;;;5.73;;
14975;SDS011;7584;60.468;25.126;2023-11-19T04:22:29;10.50;;;6.53;;
14975;SDS011;7584;60.468;25.126;2023-11-19T04:24:54;9.83;;;6.40;;
14975;SDS011;7584;60.468;25.126;2023-11-19T04:27:19;7.47;;;5.20;;
14975;SDS011;7584;60.468;25.126;2023-11-19T04:29:45;8.70;;;5.77;;
14975;SDS011;7584;60.468;25.126;2023-11-19T04:32:12;9.23;;;5.60;;
14975;SDS011;7584;60.468;25.126;2023-11-19T04:34:37;7.77;;;5.60;;
14975;SDS011;7584;60.468;25.126;2023-11-19T04:37:02;9.97;;;6.13;;
14975;SDS011;7584;60.468;25.126;2023-11-19T04:39:28;7.67;;;5.17;;
14975;SDS011;7584;60.468;25.126;2023-11-19T04:41:54;7.33;;;5.07;;
14975;SDS011;7584;60.468;25.126;2023-11-19T04:44:19;8.17;;;5.17;;
14975;SDS011;7584;60.468;25.126;2023-11-19T04:46:45;9.33;;;6.27;;
14975;SDS011;7584;60.468;25.126;2023-11-19T04:49:14;8.13;;;5.03;;
14975;SDS011;7584;60.468;25.126;2023-11-19T04:51:40;8.20;;;5.20;;
14975;SDS011;7584;60.468;25.126;2023-11-19T04:54:06;8.47;;;5.73;;
14975;SDS011;7584;60.468;25.126;2023-11-19T04:56:32;10.47;;;5.83;;
14975;SDS011;7584;60.468;25.126;2023-11-19T04:58:58;9.80;;;5.13;;
14975;SDS011;7584;60.468;25.126;2023-11-19T05:01:23;8.90;;;5.03;;
14975;SDS011;7584;60.468;25.126;2023-11-19T05:03:48;7.80;;;5.03;;
14975;SDS011;7584;60.468;25.126;2023-11-19T05:06:14;9.57;;;5.27;;
14975;SDS011;7584;60.468;25.126;2023-11-19T05:08:40;8.20;;;4.67;;
14975;SDS011;7584;60.468;25.126;2023-11-19T05:11:05;7.43;;;4.63;;
14975;SDS011;7584;60.468;25.126;2023-11-19T05:13:31;8.20;;;4.80;;
14975;SDS011;7584;60.468;25.126;2023-11-19T05:15:56;8.80;;;4.63;;
14975;SDS011;7584;60.468;25.126;2023-11-19T05:18:21;6.00;;;4.13;;
14975;SDS011;7584;60.468;25.126;2023-11-19T05:20:46;6.93;;;4.53;;
14975;SDS011;7584;60.468;25.126;2023-11-19T05:23:12;7.93;;;4.50;;
14975;SDS011;7584;60.468;25.126;2023-11-19T05:25:37;7.83;;;4.60;;
14975;SDS011;7584;60.468;25.126;2023-11-19T05:28:02;6.27;;;4.67;;
14975;SDS011;7584;60.468;25.126;2023-11-19T05:30:28;7.37;;;4.23;;
14975;SDS011;7584;60.468;25.126;2023-11-19T05:32:53;8.17;;;4.87;;
14975;SDS011;7584;60.468;25.126;2023-11-19T05:35:18;8.83;;;4.60;;
14975;SDS011;7584;60.468;25.126;2023-11-19T05:37:43;6.10;;;4.63;;
14975;SDS011;7584;60.468;25.126;2023-11-19T05:40:09;6.57;;;4.20;;
14975;SDS011;7584;60.468;25.126;2023-11-19T05:42:39;8.07;;;5.30;;
14975;SDS011;7584;60.468;25.126;2023-11-19T05:45:05;7.13;;;4.80;;
14975;SDS011;7584;60.468;25.126;2023-11-19T05:47:30;6.63;;;4.80;;
14975;SDS011;7584;60.468;25.126;2023-11-19T05:49:56;9.30;;;4.87;;
14975;SDS011;7584;60.468;25.126;2023-11-19T05:52:21;7.83;;;5.03;;
14975;SDS011;7584;60.468;25.126;2023-11-19T05:54:47;5.90;;;4.13;;
14975;SDS011;7584;60.468;25.126;2023-11-19T05:57:16;6.93;;;4.63;;
14975;SDS011;7584;60.468;25.126;2023-11-19T05:59:45;6.23;;;4.80;;
14975;SDS011;7584;60.468;25.126;2023-11-19T06:02:10;7.27;;;4.53;;
14975;SDS011;7584;60.468;25.126;2023-11-19T06:04:36;6.77;;;4.37;;
14975;SDS011;7584;60.468;25.126;2023-11-19T06:07:01;6.40;;;4.50;;
14975;SDS011;7584;60.468;25.126;2023-11-19T06:09:26;6.20;;;4.87;;
14975;SDS011;7584;60.468;25.126;2023-11-19T06:11:51;6.63;;;4.57;;
14975;SDS011;7584;60.468;25.126;2023-11-19T06:14:17;6.70;;;4.60;;
14975;SDS011;7584;60.468;25.126;2023-11-19T06:16:43;7.13;;;4.67;;
14975;SDS011;7584;60.468;25.126;2023-11-19T06:19:09;6.27;;;4.10;;
14975;SDS011;7584;60.468;25.126;2023-11-19T06:21:36;7.97;;;4.07;;
14975;SDS011;7584;60.468;25.126;2023-11-19T06:24:02;6.93;;;4.63;;
14975;SDS011;7584;60.468;25.126;2023-11-19T06:26:27;6.13;;;3.90;;
14975;SDS011;7584;60.468;25.126;2023-11-19T06:28:52;6.87;;;4.70;;
14975;SDS011;7584;60.468;25.126;2023-11-19T06:31:17;6.43;;;4.13;;
14975;SDS011;7584;60.468;25.126;2023-11-19T06:33:43;9.37;;;5.57;;
14975;SDS011;7584;60.468;25.126;2023-11-19T06:36:08;8.40;;;5.57;;
14975;SDS011;7584;60.468;25.126;2023-11-19T06:38:34;12.80;;;7.23;;
14975;SDS011;7584;60.468;25.126;2023-11-19T06:40:59;8.90;;;5.43;;
14975;SDS011;7584;60.468;25.126;2023-11-19T06:43:24;9.80;;;5.10;;
14975;SDS011;7584;60.468;25.126;2023-11-19T06:45:50;7.13;;;4.10;;
14975;SDS011;7584;60.468;25.126;2023-11-19T06:48:16;5.93;;;3.97;;
14975;SDS011;7584;60.468;25.126;2023-11-19T06:50:41;5.90;;;4.20;;
14975;SDS011;7584;60.468;25.126;2023-11-19T06:53:06;7.33;;;4.17;;
14975;SDS011;7584;60.468;25.126;2023-11-19T06:55:35;6.40;;;4.37;;
14975;SDS011;7584;60.468;25.126;2023-11-19T06:58:00;7.00;;;4.47;;
14975;SDS011;7584;60.468;25.126;2023-11-19T07:00:27;5.73;;;3.83;;
14975;SDS011;7584;60.468;25.126;2023-11-19T07:02:52;6.50;;;4.20;;
14975;SDS011;7584;60.468;25.126;2023-11-19T07:05:18;6.40;;;4.63;;
14975;SDS011;7584;60.468;25.126;2023-11-19T07:07:44;17.80;;;10.53;;
14975;SDS011;7584;60.468;25.126;2023-11-19T07:10:11;8.33;;;5.43;;
14975;SDS011;7584;60.468;25.126;2023-11-19T07:12:36;13.70;;;8.27;;
14975;SDS011;7584;60.468;25.126;2023-11-19T07:15:02;12.87;;;7.33;;
14975;SDS011;7584;60.468;25.126;2023-11-19T07:17:28;11.90;;;7.23;;
14975;SDS011;7584;60.468;25.126;2023-11-19T07:19:53;9.03;;;6.47;;
14975;SDS011;7584;60.468;25.126;2023-11-19T07:22:19;11.77;;;6.80;;
14975;SDS011;7584;60.468;25.126;2023-11-19T07:24:45;6.70;;;4.67;;
14975;SDS011;7584;60.468;25.126;2023-11-19T07:27:10;5.70;;;4.07;;
14975;SDS011;7584;60.468;25.126;2023-11-19T07:29:35;5.97;;;3.33;;
14975;SDS011;7584;60.468;25.126;2023-11-19T07:32:01;5.63;;;3.83;;
14975;SDS011;7584;60.468;25.126;2023-11-19T07:34:27;6.00;;;3.33;;
14975;SDS011;7584;60.468;25.126;2023-11-19T07:36:52;5.83;;;3.13;;
14975;SDS011;7584;60.468;25.126;2023-11-19T07:39:18;4.30;;;3.10;;
14975;SDS011;7584;60.468;25.126;2023-11-19T07:41:43;5.33;;;3.27;;
14975;SDS011;7584;60.468;25.126;2023-11-19T07:44:08;5.43;;;3.70;;
14975;SDS011;7584;60.468;25.126;2023-11-19T07:46:33;4.60;;;3.03;;
14975;SDS011;7584;60.468;25.126;2023-11-19T07:48:59;5.50;;;3.10;;
14975;SDS011;7584;60.468;25.126;2023-11-19T07:51:24;4.53;;;3.17;;
14975;SDS011;7584;60.468;25.126;2023-11-19T07:53:49;5.07;;;3.20;;
14975;SDS011;7584;60.468;25.126;2023-11-19T07:56:15;4.10;;;2.93;;
14975;SDS011;7584;60.468;25.126;2023-11-19T07:58:40;6.70;;;3.50;;
14975;SDS011;7584;60.468;25.126;2023-11-19T08:01:05;4.13;;;3.07;;
14975;SDS011;7584;60.468;25.126;2023-11-19T08:03:31;6.03;;;2.90;;
14975;SDS011;7584;60.468;25.126;2023-11-19T08:05:57;7.13;;;3.03;;
14975;SDS011;7584;60.468;25.126;2023-11-19T08:08:22;5.70;;;3.10;;
14975;SDS011;7584;60.468;25.126;2023-11-19T08:10:47;5.17;;;3.33;;
14975;SDS011;7584;60.468;25.126;2023-11-19T08:13:13;3.63;;;2.53;;
14975;SDS011;7584;60.468;25.126;2023-11-19T08:15:39;3.43;;;2.60;;
14975;SDS011;7584;60.468;25.126;2023-11-19T08:18:05;4.07;;;3.03;;
14975;SDS011;7584;60.468;25.126;2023-11-19T08:20:32;4.80;;;3.27;;
14975;SDS011;7584;60.468;25.126;2023-11-19T08:22:57;4.43;;;3.00;;
14975;SDS011;7584;60.468;25.126;2023-11-19T08:25:22;4.27;;;3.27;;
14975;SDS011;7584;60.468;25.126;2023-11-19T08:27:48;5.63;;;3.30;;
14975;SDS011;7584;60.468;25.126;2023-11-19T08:30:13;3.47;;;2.73;;
14975;SDS011;7584;60.468;25.126;2023-11-19T08:32:38;4.60;;;3.03;;
14975;SDS011;7584;60.468;25.126;2023-11-19T08:35:04;4.13;;;2.77;;
14975;SDS011;7584;60.468;25.126;2023-11-19T08:37:30;4.80;;;3.03;;
14975;SDS011;7584;60.468;25.126;2023-11-19T08:39:56;3.97;;;3.00;;
14975;SDS011;7584;60.468;25.126;2023-11-19T08:42:21;6.73;;;2.80;;
14975;SDS011;7584;60.468;25.126;2023-11-19T08:44:50;6.93;;;3.90;;
14975;SDS011;7584;60.468;25.126;2023-11-19T08:47:16;7.93;;;4.07;;
14975;SDS011;7584;60.468;25.126;2023-11-19T08:49:43;6.67;;;3.33;;
14975;SDS011;7584;60.468;25.126;2023-11-19T08:52:08;4.73;;;2.90;;
14975;SDS011;7584;60.468;25.126;2023-11-19T08:54:34;5.27;;;3.10;;
14975;SDS011;7584;60.468;25.126;2023-11-19T08:56:59;6.23;;;2.90;;
14975;SDS011;7584;60.468;25.126;2023-11-19T08:59:25;7.27;;;2.97;;
14975;SDS011;7584;60.468;25.126;2023-11-19T09:01:50;6.20;;;3.30;;
14975;SDS011;7584;60.468;25.126;2023-11-19T09:04:16;7.87;;;3.20;;
14975;SDS011;7584;60.468;25.126;2023-11-19T09:06:41;4.83;;;2.57;;
14975;SDS011;7584;60.468;25.126;2023-11-19T09:09:07;3.80;;;2.20;;
14975;SDS011;7584;60.468;25.126;2023-11-19T09:11:33;2.33;;;1.60;;
14975;SDS011;7584;60.468;25.126;2023-11-19T09:13:58;2.90;;;2.03;;
14975;SDS011;7584;60.468;25.126;2023-11-19T09:16:23;5.17;;;1.90;;
14975;SDS011;7584;60.468;25.126;2023-11-19T09:18:49;4.57;;;1.70;;
14975;SDS011;7584;60.468;25.126;2023-11-19T09:21:14;3.53;;;2.00;;
14975;SDS011;7584;60.468;25.126;2023-11-19T09:23:39;4.33;;;1.80;;
14975;SDS011;7584;60.468;25.126;2023-11-19T09:26:05;3.13;;;1.97;;
14975;SDS011;7584;60.468;25.126;2023-11-19T09:28:31;3.40;;;2.20;;
14975;SDS011;7584;60.468;25.126;2023-11-19T09:30:56;2.60;;;2.10;;
14975;SDS011;7584;60.468;25.126;2023-11-19T09:33:21;3.57;;;1.97;;
14975;SDS011;7584;60.468;25.126;2023-11-19T09:35:47;3.37;;;2.20;;
14975;SDS011;7584;60.468;25.126;2023-11-19T09:38:14;3.53;;;1.80;;
14975;SDS011;7584;60.468;25.126;2023-11-19T09:40:40;3.20;;;2.17;;
14975;SDS011;7584;60.468;25.126;2023-11-19T09:43:05;3.20;;;1.90;;
14975;SDS011;7584;60.468;25.126;2023-11-19T09:45:31;2.57;;;1.70;;
14975;SDS011;7584;60.468;25.126;2023-11-19T09:47:57;3.00;;;2.27;;
14975;SDS011;7584;60.468;25.126;2023-11-19T09:50:25;3.20;;;2.10;;
14975;SDS011;7584;60.468;25.126;2023-11-19T09:52:50;2.83;;;2.10;;
14975;SDS011;7584;60.468;25.126;2023-11-19T09:55:15;3.00;;;1.93;;
14975;SDS011;7584;60.468;25.126;2023-11-19T09:57:41;2.63;;;1.83;;
14975;SDS011;7584;60.468;25.126;2023-11-19T10:00:07;2.87;;;1.90;;
14975;SDS011;7584;60.468;25.126;2023-11-19T10:02:35;3.53;;;2.20;;
14975;SDS011;7584;60.468;25.126;2023-11-19T10:05:02;3.73;;;1.87;;
14975;SDS011;7584;60.468;25.126;2023-11-19T10:07:30;3.37;;;2.37;;
14975;SDS011;7584;60.468;25.126;2023-11-19T10:09:57;3.23;;;2.00;;
14975;SDS011;7584;60.468;25.126;2023-11-19T10:12:23;3.03;;;2.17;;
14975;SDS011;7584;60.468;25.126;2023-11-19T10:14:48;4.63;;;2.10;;
14975;SDS011;7584;60.468;25.126;2023-11-19T10:17:16;2.33;;;1.70;;
14975;SDS011;7584;60.468;25.126;2023-11-19T10:19:41;3.00;;;2.13;;
14975;SDS011;7584;60.468;25.126;2023-11-19T10:22:06;3.57;;;2.33;;
14975;SDS011;7584;60.468;25.126;2023-11-19T10:24:32;4.33;;;2.63;;
14975;SDS011;7584;60.468;25.126;2023-11-19T10:27:02;2.87;;;1.97;;
14975;SDS011;7584;60.468;25.126;2023-11-19T10:29:31;2.23;;;1.87;;
14975;SDS011;7584;60.468;25.126;2023-11-19T10:31:57;4.33;;;2.00;;
14975;SDS011;7584;60.468;25.126;2023-11-19T10:34:26;2.97;;;1.60;;
14975;SDS011;7584;60.468;25.126;2023-11-19T10:36:52;3.27;;;1.80;;
14975;SDS011;7584;60.468;25.126;2023-11-19T10:39:17;2.77;;;1.97;;
14975;SDS011;7584;60.468;25.126;2023-11-19T10:41:43;3.43;;;1.77;;
14975;SDS011;7584;60.468;25.126;2023-11-19T10:44:08;1.97;;;1.67;;
14975;SDS011;7584;60.468;25.126;2023-11-19T10:46:40;2.73;;;1.60;;
14975;SDS011;7584;60.468;25.126;2023-11-19T10:49:06;2.23;;;1.40;;
14975;SDS011;7584;60.468;25.126;2023-11-19T10:51:32;4.80;;;1.77;;
14975;SDS011;7584;60.468;25.126;2023-11-19T10:53:58;3.43;;;2.23;;
14975;SDS011;7584;60.468;25.126;2023-11-19T10:56:26;2.47;;;1.63;;
14975;SDS011;7584;60.468;25.126;2023-11-19T10:58:55;2.93;;;1.90;;
14975;SDS011;7584;60.468;25.126;2023-11-19T11:01:24;2.77;;;1.77;;
14975;SDS011;7584;60.468;25.126;2023-11-19T11:03:51;3.00;;;1.87;;
14975;SDS011;7584;60.468;25.126;2023-11-19T11:06:19;3.60;;;1.90;;
14975;SDS011;7584;60.468;25.126;2023-11-19T11:08:44;2.80;;;1.90;;
14975;SDS011;7584;60.468;25.126;2023-11-19T11:11:11;2.73;;;1.83;;
14975;SDS011;7584;60.468;25.126;2023-11-19T11:13:38;2.20;;;1.70;;
14975;SDS011;7584;60.468;25.126;2023-11-19T11:16:06;4.40;;;2.20;;
14975;SDS011;7584;60.468;25.126;2023-11-19T11:18:32;4.17;;;1.80;;
14975;SDS011;7584;60.468;25.126;2023-11-19T11:21:05;2.10;;;1.73;;
14975;SDS011;7584;60.468;25.126;2023-11-19T11:26:06;3.93;;;1.80;;
14975;SDS011;7584;60.468;25.126;2023-11-19T11:36:37;3.50;;;2.30;;
14975;SDS011;7584;60.468;25.126;2023-11-19T11:39:07;2.83;;;2.17;;
14975;SDS011;7584;60.468;25.126;2023-11-19T11:41:32;3.00;;;2.17;;
14975;SDS011;7584;60.468;25.126;2023-11-19T11:43:58;2.77;;;2.00;;
14975;SDS011;7584;60.468;25.126;2023-11-19T11:49:01;3.63;;;2.33;;
14975;SDS011;7584;60.468;25.126;2023-11-19T11:54:08;8.47;;;2.70;;
14975;SDS011;7584;60.468;25.126;2023-11-19T11:56:33;3.93;;;2.50;;
14975;SDS011;7584;60.468;25.126;2023-11-19T11:59:01;3.07;;;2.03;;
14975;SDS011;7584;60.468;25.126;2023-11-19T12:01:27;3.20;;;2.13;;
14975;SDS011;7584;60.468;25.126;2023-11-19T12:03:57;3.57;;;2.40;;
14975;SDS011;7584;60.468;25.126;2023-11-19T12:06:23;2.37;;;1.87;;
14975;SDS011;7584;60.468;25.126;2023-11-19T12:08:48;3.80;;;2.63;;
14975;SDS011;7584;60.468;25.126;2023-11-19T12:11:13;3.53;;;2.33;;
14975;SDS011;7584;60.468;25.126;2023-11-19T12:13:54;3.20;;;2.30;;
14975;SDS011;7584;60.468;25.126;2023-11-19T12:16:23;3.67;;;2.50;;
14975;SDS011;7584;60.468;25.126;2023-11-19T12:18:48;5.80;;;2.37;;
14975;SDS011;7584;60.468;25.126;2023-11-19T12:21:29;4.37;;;2.33;;
14975;SDS011;7584;60.468;25.126;2023-11-19T12:23:58;2.37;;;1.70;;
14975;SDS011;7584;60.468;25.126;2023-11-19T12:26:33;5.03;;;1.80;;
14975;SDS011;7584;60.468;25.126;2023-11-19T12:28:59;4.23;;;2.00;;
14975;SDS011;7584;60.468;25.126;2023-11-19T12:31:25;2.63;;;1.50;;
14975;SDS011;7584;60.468;25.126;2023-11-19T12:33:51;4.57;;;2.10;;
14975;SDS011;7584;60.468;25.126;2023-11-19T12:36:16;5.23;;;2.10;;
14975;SDS011;7584;60.468;25.126;2023-11-19T12:38:42;2.73;;;1.90;;
14975;SDS011;7584;60.468;25.126;2023-11-19T12:41:12;3.43;;;2.20;;
14975;SDS011;7584;60.468;25.126;2023-11-19T12:43:38;4.30;;;2.40;;
14975;SDS011;7584;60.468;25.126;2023-11-19T12:46:25;3.93;;;2.03;;
14975;SDS011;7584;60.468;25.126;2023-11-19T12:48:50;3.33;;;2.07;;
14975;SDS011;7584;60.468;25.126;2023-11-19T12:51:15;4.27;;;2.10;;
14975;SDS011;7584;60.468;25.126;2023-11-19T12:53:53;2.80;;;2.10;;
14975;SDS011;7584;60.468;25.126;2023-11-19T12:56:23;8.43;;;2.53;;
14975;SDS011;7584;60.468;25.126;2023-11-19T12:58:49;5.33;;;2.17;;
14975;SDS011;7584;60.468;25.126;2023-11-19T13:01:15;3.90;;;2.17;;
14975;SDS011;7584;60.468;25.126;2023-11-19T13:03:41;3.03;;;2.30;;
14975;SDS011;7584;60.468;25.126;2023-11-19T13:11:03;4.57;;;2.50;;
14975;SDS011;7584;60.468;25.126;2023-11-19T13:13:28;2.97;;;2.27;;
14975;SDS011;7584;60.468;25.126;2023-11-19T13:16:01;3.90;;;1.93;;
14975;SDS011;7584;60.468;25.126;2023-11-19T13:18:26;3.37;;;2.50;;
14975;SDS011;7584;60.468;25.126;2023-11-19T13:20:51;6.70;;;2.50;;
14975;SDS011;7584;60.468;25.126;2023-11-19T13:23:17;5.30;;;2.33;;
14975;SDS011;7584;60.468;25.126;2023-11-19T13:25:42;7.57;;;3.20;;
14975;SDS011;7584;60.468;25.126;2023-11-19T13:28:08;5.87;;;3.03;;
14975;SDS011;7584;60.468;25.126;2023-11-19T13:30:34;5.23;;;2.93;;
14975;SDS011;7584;60.468;25.126;2023-11-19T13:33:00;4.50;;;2.77;;
14975;SDS011;7584;60.468;25.126;2023-11-19T13:35:25;4.60;;;2.70;;
14975;SDS011;7584;60.468;25.126;2023-11-19T13:37:52;3.43;;;2.80;;
14975;SDS011;7584;60.468;25.126;2023-11-19T13:40:19;5.67;;;3.13;;
14975;SDS011;7584;60.468;25.126;2023-11-19T13:42:44;5.03;;;2.67;;
14975;SDS011;7584;60.468;25.126;2023-11-19T13:45:10;4.90;;;2.30;;
14975;SDS011;7584;60.468;25.126;2023-11-19T13:47:37;6.53;;;2.60;;
14975;SDS011;7584;60.468;25.126;2023-11-19T13:50:02;6.50;;;3.40;;
14975;SDS011;7584;60.468;25.126;2023-11-19T13:52:31;5.57;;;3.37;;
14975;SDS011;7584;60.468;25.126;2023-11-19T13:54:56;6.00;;;2.70;;
14975;SDS011;7584;60.468;25.126;2023-11-19T13:57:21;5.50;;;2.73;;
14975;SDS011;7584;60.468;25.126;2023-11-19T13:59:47;7.87;;;2.93;;
14975;SDS011;7584;60.468;25.126;2023-11-19T14:02:12;5.80;;;3.17;;
14975;SDS011;7584;60.468;25.126;2023-11-19T14:04:37;4.23;;;3.00;;
14975;SDS011;7584;60.468;25.126;2023-11-19T14:07:03;6.10;;;2.90;;
14975;SDS011;7584;60.468;25.126;2023-11-19T14:09:28;5.57;;;3.17;;
14975;SDS011;7584;60.468;25.126;2023-11-19T14:11:54;6.90;;;3.33;;
14975;SDS011;7584;60.468;25.126;2023-11-19T14:14:19;6.53;;;3.20;;
14975;SDS011;7584;60.468;25.126;2023-11-19T14:16:44;4.67;;;3.00;;
14975;SDS011;7584;60.468;25.126;2023-11-19T14:19:11;5.73;;;2.90;;
14975;SDS011;7584;60.468;25.126;2023-11-19T14:21:36;4.43;;;3.03;;
14975;SDS011;7584;60.468;25.126;2023-11-19T14:24:01;5.63;;;3.10;;
14975;SDS011;7584;60.468;25.126;2023-11-19T14:26:26;4.03;;;3.23;;
14975;SDS011;7584;60.468;25.126;2023-11-19T14:28:52;4.40;;;2.90;;
14975;SDS011;7584;60.468;25.126;2023-11-19T14:31:17;3.97;;;2.90;;
14975;SDS011;7584;60.468;25.126;2023-11-19T14:33:42;6.80;;;3.27;;
14975;SDS011;7584;60.468;25.126;2023-11-19T14:36:08;6.43;;;2.63;;
14975;SDS011;7584;60.468;25.126;2023-11-19T14:38:33;6.63;;;3.33;;
14975;SDS011;7584;60.468;25.126;2023-11-19T14:40:59;2.87;;;2.33;;
14975;SDS011;7584;60.468;25.126;2023-11-19T14:43:24;6.53;;;2.63;;
14975;SDS011;7584;60.468;25.126;2023-11-19T14:45:50;5.27;;;2.73;;
14975;SDS011;7584;60.468;25.126;2023-11-19T14:48:15;2.77;;;2.30;;
14975;SDS011;7584;60.468;25.126;2023-11-19T14:50:42;6.93;;;2.67;;
14975;SDS011;7584;60.468;25.126;2023-11-19T14:53:09;3.97;;;2.63;;
14975;SDS011;7584;60.468;25.126;2023-11-19T14:55:34;5.50;;;2.63;;
14975;SDS011;7584;60.468;25.126;2023-11-19T14:58:00;5.40;;;3.30;;
14975;SDS011;7584;60.468;25.126;2023-11-19T15:00:25;7.50;;;3.17;;